Weather at Vancouver International Airport

Public forecast

Using degrees Celsius for public forecast. Weather courtesy of forecast.io.

Current aviation weather report (METAR) for Vancouver International Airport

Retrieved 2021/08/04 15:00 UTC (1 hour ago):

CYVR 041500Z 13009KT 30SM FEW100 FEW230 19/15 A3003 RMK AC1CI1 AC TR CI TR WND ESTD VIA CYXY SLP169 DENSITY ALT 400FT

Aviation forecast (TAF) for Vancouver International Airport

Retrieved 2021/08/04 15:41 UTC (25 minutes ago):

TAF CYVR 041438Z 0415/0518 10005KT P6SM FEW140 SCT240 BECMG 0416/0418 25008KT BECMG 0502/0504 VRB03KT FM050600 10007KT P6SM FEW180 RMK NXT FCST BY 041800Z